• Join FlightAware (Why Join?)
  • Login
  • US Flag 
04:21PM EDT


 

Airport Tracker/Info


-or-


 

Live Flight TrackerFlight Track Log ✈ FIN77 ✈ 17-Nov-2013 ✈ EFHK / HEL - RJBB / KIX

Flight Track Log - Related Links

Times and Time Zones

All times are in EST time to prevent confusion due to time zone crossing. See the FIN77 flight status page for this flight to view local times or setup timezone preferences in your user account.

Time Position Orientation Groundspeed Altitude Reporting Facility
EST Latitude Longitude Course Direction KTS MPH feet Rate Location/Type
10:33AM 60.3060 24.8900 329° Northwest 153 176 1,400  Level FlightAware
10:33AM 60.3050 24.8320 268° West 161 185 2,300 1,020 Climbing FlightAware
10:34AM 60.3180 24.8050 314° West 190 219 2,600 1,080 Climbing FlightAware
10:34AM 60.3410 24.7860 338° Northwest 223 257 3,200 2,400 Climbing FlightAware
10:35AM 60.3850 24.8270 25° Northeast 246 283 5,400 2,640 Climbing FlightAware
10:35AM 60.3980 24.8850 66° East 288 331 6,400 2,160 Climbing FlightAware
10:36AM 60.3760 24.9870 114° Southeast 305 351 7,900 2,280 Climbing FlightAware
10:37AM 60.3470 25.0880 120° Southeast 321 369 9,500 1,920 Climbing FlightAware
10:37AM 60.3270 25.2110 108° East 341 392 10,600 1,260 Climbing FlightAware
10:38AM 60.3170 25.3360 99° East 379 436 11,200 1,260 Climbing FlightAware
10:39AM 60.3020 25.5020 100° East 406 467 12,400 1,860 Climbing FlightAware
10:40AM 60.2790 25.7710 100° East 421 484 14,900 1,980 Climbing FlightAware
10:41AM 60.2570 26.0180 100° East 435 501 16,900 1,800 Climbing FlightAware
10:42AM 60.2430 26.1740 100° East 447 514 18,000 1,620 Climbing FlightAware
10:42AM 60.2330 26.2870 100° East 454 522 18,700 1,560 Climbing FlightAware
10:43AM 60.2180 26.4510 100° East 462 532 19,800 1,500 Climbing FlightAware
10:44AM 60.2020 26.6260 100° East 474 545 20,800 1,440 Climbing FlightAware
10:44AM 60.1840 26.8170 101° East 486 559 21,800 1,320 Climbing FlightAware
10:45AM 60.1700 26.9610 101° East 492 566 22,500 1,320 Climbing FlightAware
10:45AM 60.1540 27.1320 101° East 499 574 23,400 1,200 Climbing FlightAware
10:46AM 60.1370 27.3040 101° East 507 583 24,100 1,020 Climbing FlightAware
10:47AM 60.1220 27.4540 101° East 517 595 24,600 1,020 Climbing FlightAware
10:47AM 60.1060 27.6080 102° East 523 602 25,200 1,020 Climbing FlightAware
10:48AM 60.0910 27.7540 102° East 528 608 25,700 840 Climbing FlightAware
10:49AM 60.0620 28.0340 102° East 541 623 26,500 900 Climbing FlightAware
10:49AM 60.0370 28.2680 102° East 549 632 27,300 840 Climbing FlightAware
10:50AM 60.0200 28.4300 102° East 553 636 27,700 780 Climbing FlightAware
10:51AM 59.9990 28.6180 103° East 561 646 28,200 720 Climbing FlightAware
10:51AM 59.9740 28.8470 102° East 569 655 28,700 780 Climbing FlightAware
10:52AM 59.9510 29.0500 103° East 573 659 29,300 660 Climbing FlightAware
10:53AM 59.9290 29.2470 102° East 579 666 29,600 600 Climbing FlightAware
10:53AM 59.9060 29.4410 103° East 583 671 30,100 1,080 Climbing FlightAware
10:54AM 59.8800 29.6640 103° East 574 661 31,100 1,020 Climbing FlightAware
10:55AM 59.8570 29.8570 103° East 577 664 31,500 720 Climbing FlightAware
10:55AM 59.8360 30.0350 103° East 578 665 32,000 720 Climbing FlightAware
10:56AM 59.8130 30.3050 100° East 572 658 32,600 780 Climbing FlightAware
10:57AM 59.8090 30.4920 92° East 564 649 33,200 900 Climbing FlightAware
10:57AM 59.8140 30.7050 87° East 554 638 33,800 720 Climbing FlightAware
10:58AM 59.8350 30.9450 80° East 546 628 34,300 480 Climbing FlightAware
10:59AM 59.8550 31.1680 80° East 550 633 34,600 420 Climbing FlightAware
10:59AM 59.8700 31.3370 80° East 550 633 34,900 300 Climbing FlightAware
11:00AM 59.8870 31.5210 79° East 550 633 35,000 60 Climbing FlightAware
11:01AM 59.9040 31.7180 80° East 543 625 35,000  Level FlightAware
11:01AM 59.9160 31.8690 81° East 543 625 35,000  Level FlightAware
11:02AM 59.9320 32.0530 80° East 544 626 35,000  Level FlightAware
11:02AM 59.9430 32.1830 80° East 544 626 35,000  Level FlightAware
11:03AM 59.9590 32.3830 81° East 544 626 35,000  Level FlightAware
11:04AM 59.9740 32.5700 81° East 540 621 35,000  Level FlightAware
11:04AM 59.9890 32.7630 81° East 540 621 35,000  Level FlightAware
11:05AM 60.0090 33.0390 82° East 539 620 35,000  Level FlightAware
11:06AM 60.0190 33.1740 82° East 538 619 35,000  Level FlightAware
11:06AM 60.0360 33.3960 81° East 540 621 35,000  Level FlightAware
11:07AM 60.0450 33.5240 82° East 541 623 35,000  Level FlightAware
11:07AM 60.0570 33.6930 82° East 542 624 35,000  Level FlightAware
11:08AM 60.0730 33.9340 82° East 543 625 35,000  Level FlightAware
11:09AM 60.0830 34.0830 82° East 544 626 35,000  Level FlightAware
11:10AM 60.1000 34.3430 82° East 543 625 35,000  Level FlightAware
11:11AM 60.1180 34.6230 83° East 540 621 35,000  Level FlightAware
11:11AM 60.1300 34.8220 83° East 536 617 35,000  Level FlightAware
11:12AM 60.1500 35.1590 83° East 526 605 35,000  Level FlightAware
11:13AM 60.1630 35.3790 83° East 527 606 35,000  Level FlightAware
11:14AM 60.1780 35.6500 84° East 528 608 35,000  Level FlightAware
11:15AM 60.2000 35.9360 81° East 523 602 35,000  Level FlightAware
11:16AM 60.2220 36.1170 76° East 519 597 35,000  Level FlightAware
11:16AM 60.2420 36.2870 77° East 520 598 35,000  Level FlightAware
11:17AM 60.2720 36.5470 77° East 522 601 35,000  Level FlightAware
11:18AM 60.2920 36.7270 77° East 521 600 35,000  Level FlightAware
11:18AM 60.3070 36.8610 77° East 521 600 35,000  Level FlightAware
11:19AM 60.3220 36.9970 77° East 521 600 35,000  Level FlightAware
11:19AM 60.3420 37.1850 78° East 522 601 35,000  Level FlightAware
11:20AM 60.3650 37.3960 77° East 525 604 35,000  Level FlightAware
11:21AM 60.3770 37.5080 78° East 527 606 35,000  Level FlightAware
11:21AM 60.3940 37.6780 78° East 529 609 35,000  Level FlightAware
11:22AM 60.4200 37.9300 78° East 531 611 35,000  Level FlightAware
11:22AM 60.4320 38.0470 78° East 532 612 35,000  Level FlightAware
11:23AM 60.4490 38.2120 78° East 533 613 35,000  Level FlightAware
11:24AM 60.4630 38.3580 79° East 533 613 35,000  Level FlightAware
11:24AM 60.4830 38.5630 79° East 532 612 35,000  Level FlightAware
11:25AM 60.4950 38.6880 79° East 533 613 35,000  Level FlightAware
11:25AM 60.5100 38.8430 79° East 533 613 35,000  Level FlightAware
11:26AM 60.5240 38.9940 79° East 533 613 35,000  Level FlightAware
11:27AM 60.5430 39.1940 79° East 533 613 35,000  Level FlightAware
11:28AM 60.5630 39.3990 79° East 533 613 35,000  Level FlightAware
11:28AM 60.5730 39.5000 79° East 533 613 35,000  Level FlightAware
11:29AM 60.5870 39.6510 79° East 533 613 35,000  Level FlightAware
11:29AM 60.6010 39.8020 79° East 533 613 35,000  Level FlightAware
11:30AM 60.6160 39.9530 78° East 533 613 35,000  Level FlightAware
11:30AM 60.6300 40.1040 79° East 533 613 35,000  Level FlightAware
11:31AM 60.6440 40.2460 79° East 533 613 35,000  Level FlightAware
11:34AM 60.7719 40.8868 68° East  Level Estimated
11:35AM 60.8202 41.1346 68° East  Level Estimated
11:36AM 60.8681 41.3832 68° East  Level Estimated
11:37AM 60.9156 41.6325 69° East  Level Estimated
11:38AM 60.9625 41.8825 69° East  Level Estimated
11:39AM 61.0091 42.1333 69° East  Level Estimated
11:40AM 61.0551 42.3848 69° East  Level Estimated
11:41AM 61.1007 42.6371 69° East  Level Estimated
11:42AM 61.1458 42.8901 70° East  Level Estimated
11:43AM 61.1904 43.1437 70° East  Level Estimated
11:44AM 61.2346 43.3982 70° East  Level Estimated
11:45AM 61.2783 43.6533 70° East  Level Estimated
11:46AM 61.3215 43.9091 71° East  Level Estimated
11:47AM 61.3642 44.1656 71° East  Level Estimated
11:48AM 61.4064 44.4228 71° East  Level Estimated
11:49AM 61.4482 44.6808 71° East  Level Estimated
11:50AM 61.4894 44.9394 71° East  Level Estimated
11:51AM 61.5302 45.1987 72° East  Level Estimated
11:52AM 61.5705 45.4586 72° East  Level Estimated
11:53AM 61.6103 45.7192 72° East  Level Estimated
11:54AM 61.6496 45.9805 72° East  Level Estimated
11:55AM 61.6884 46.2425 73° East  Level Estimated
11:56AM 61.7266 46.5051 73° East  Level Estimated
11:57AM 61.7644 46.7684 73° East  Level Estimated
11:58AM 61.8017 47.0323 73° East  Level Estimated
11:59AM 61.8385 47.2968 73° East  Level Estimated
12:00PM 61.8747 47.5620 74° East  Level Estimated
12:01PM 61.9105 47.8278 74° East  Level Estimated
12:02PM 61.9457 48.0942 74° East  Level Estimated
12:03PM 61.9804 48.3613 74° East  Level Estimated
12:04PM 62.0146 48.6289 75° East  Level Estimated
12:05PM 62.0483 48.8971 75° East  Level Estimated
12:06PM 62.0815 49.1660 75° East  Level Estimated
12:07PM 62.1141 49.4354 75° East  Level Estimated
12:08PM 62.1462 49.7053 76° East  Level Estimated
12:09PM 62.1778 49.9759 76° East  Level Estimated
12:10PM 62.2089 50.2470 76° East  Level Estimated
12:11PM 62.2394 50.5187 76° East  Level Estimated
12:12PM 62.2694 50.7909 77° East  Level Estimated
12:13PM 62.2988 51.0636 77° East  Level Estimated
12:14PM 62.3278 51.3369 77° East  Level Estimated
12:15PM 62.3562 51.6107 77° East  Level Estimated
12:16PM 62.3840 51.8850 78° East  Level Estimated
12:17PM 62.4113 52.1598 78° East  Level Estimated
12:18PM 62.4381 52.4351 78° East  Level Estimated
12:19PM 62.4643 52.7109 78° East  Level Estimated
12:20PM 62.4900 52.9872 79° East  Level Estimated
12:21PM 62.5151 53.2640 79° East  Level Estimated
12:22PM 62.5397 53.5412 79° East  Level Estimated
12:23PM 62.5637 53.8189 79° East  Level Estimated
12:24PM 62.5872 54.0970 79° East  Level Estimated
12:25PM 62.6101 54.3755 80° East  Level Estimated
12:26PM 62.6325 54.6545 80° East  Level Estimated
12:27PM 62.6543 54.9339 80° East  Level Estimated
12:28PM 62.6756 55.2137 80° East  Level Estimated
12:29PM 62.6963 55.4939 81° East  Level Estimated
12:30PM 62.7165 55.7744 81° East  Level Estimated
12:31PM 62.7360 56.0554 81° East  Level Estimated
12:32PM 62.7551 56.3367 81° East  Level Estimated
12:33PM 62.7735 56.6184 82° East  Level Estimated
12:34PM 62.7914 56.9004 82° East  Level Estimated
12:35PM 62.8088 57.1828 82° East  Level Estimated
12:36PM 62.8255 57.4655 82° East  Level Estimated
12:37PM 62.8417 57.7485 83° East  Level Estimated
12:38PM 62.8574 58.0318 83° East  Level Estimated
12:39PM 62.8724 58.3154 83° East  Level Estimated
12:40PM 62.8869 58.5993 83° East  Level Estimated
12:41PM 62.9008 58.8835 84° East  Level Estimated
12:42PM 62.9142 59.1679 84° East  Level Estimated
12:43PM 62.9270 59.4526 84° East  Level Estimated
12:44PM 62.9392 59.7376 84° East  Level Estimated
12:45PM 62.9508 60.0227 85° East  Level Estimated
12:46PM 62.9618 60.3081 85° East  Level Estimated
12:47PM 62.9723 60.5937 85° East  Level Estimated
12:48PM 62.9822 60.8795 86° East  Level Estimated
12:49PM 62.9916 61.1655 86° East  Level Estimated
12:50PM 63.0003 61.4517 86° East  Level Estimated
12:51PM 63.0085 61.7380 86° East  Level Estimated
12:52PM 63.0160 62.0245 87° East  Level Estimated
12:53PM 63.0231 62.3111 87° East  Level Estimated
12:54PM 63.0295 62.5979 87° East  Level Estimated
12:55PM 63.0353 62.8848 87° East  Level Estimated
12:56PM 63.0406 63.1717 88° East  Level Estimated
12:57PM 63.0453 63.4588 88° East  Level Estimated
12:58PM 63.0494 63.7460 88° East  Level Estimated
12:59PM 63.0529 64.0333 88° East  Level Estimated
12:59PM 61.8610 66.6090 89° East 499 574 35,000  Level FlightAware
01:00PM 63.0559 64.3206 89° East  Level Estimated
01:00PM 61.8430 66.9210 97° East 497 572 35,000  Level FlightAware
01:01PM 63.0582 64.6079 89° East  Level Estimated
01:01PM 61.8390 67.0090 95° East 497 572 35,000  Level FlightAware
01:02PM 61.8240 67.2640 97° East 498 573 35,000  Level FlightAware
01:02PM 61.8140 67.4180 98° East 500 575 35,000  Level FlightAware
01:03PM 61.8020 67.6160 97° East 502 578 35,000  Level FlightAware
01:04PM 61.7880 67.8490 97° East 501 577 35,000  Level FlightAware
01:04PM 61.7780 67.9950 98° East 501 577 35,000  Level FlightAware
01:05PM 61.7660 68.1750 98° East 501 577 35,000  Level FlightAware
01:06PM 61.7470 68.4590 98° East 498 573 35,000  Level FlightAware
01:07PM 61.7290 68.7220 98° East 497 572 35,000  Level FlightAware
01:07PM 61.7190 68.8560 99° East 496 571 35,000  Level FlightAware
01:08PM 61.7060 69.0340 99° East 496 571 35,000  Level FlightAware
01:09PM 61.6830 69.3480 99° East 495 570 35,000  Level FlightAware
01:09PM 61.6720 69.4890 99° East 494 568 35,000  Level FlightAware
01:10PM 61.6500 69.7730 99° East 491 565 35,000  Level FlightAware
01:11PM 61.6270 70.0550 100° East 487 560 35,000  Level FlightAware
01:12PM 61.6190 70.1630 99° East 487 560 35,000  Level FlightAware
01:13PM 61.6010 70.3690 100° East 487 560 35,000  Level FlightAware
01:13PM 61.5890 70.5120 100° East 487 560 35,000  Level FlightAware
01:14PM 61.5730 70.7060 100° East 487 560 35,000  Level FlightAware
01:15PM 61.5570 70.8960 100° East 487 560 35,000  Level FlightAware
01:15PM 61.5490 70.9910 100° East 487 560 35,000  Level FlightAware
01:16PM 61.5370 71.1330 100° East 487 560 35,000  Level FlightAware
01:16PM 61.5250 71.2760 100° East 487 560 35,000  Level FlightAware
01:17PM 61.5130 71.4180 100° East 487 560 35,000  Level FlightAware
01:18PM 61.5010 71.5610 100° East 487 560 35,000  Level FlightAware
01:18PM 61.4890 71.7030 100° East 487 560 35,000  Level FlightAware
01:19PM 61.4770 71.8490 100° East 487 560 35,000  Level FlightAware
01:20PM 61.3970 72.5900 102° East 495 570 35,000  Level FlightAware
01:21PM 61.3870 72.6860 102° East 495 570 35,000  Level FlightAware
01:21PM 61.3670 72.8770 102° East 494 568 35,000  Level FlightAware
01:22PM 61.3490 73.0550 102° East 492 566 35,000  Level FlightAware
01:22PM 61.3350 73.1890 102° East 492 566 35,000  Level FlightAware
01:23PM 61.3170 73.3610 102° East 490 564 35,000  Level FlightAware
01:24PM 61.2950 73.5590 103° East 491 565 35,000  Level FlightAware
01:25PM 61.2720 73.7700 103° East 491 565 35,000  Level FlightAware
01:25PM 61.2540 73.9350 103° East 493 567 35,000  Level FlightAware
01:26PM 61.2150 74.2780 103° East 497 572 35,000  Level FlightAware
01:27PM 61.2040 74.3770 103° East 497 572 35,000  Level FlightAware
01:27PM 61.1840 74.5510 103° East 497 572 35,000  Level FlightAware
01:28PM 61.1680 74.6930 103° East 497 572 35,000  Level FlightAware
01:29PM 61.1520 74.8390 103° East 497 572 35,000  Level FlightAware
01:29PM 61.1360 74.9820 103° East 497 572 35,000  Level FlightAware
01:30PM 61.1200 75.1230 103° East 497 572 35,000  Level FlightAware
01:30PM 61.1040 75.2650 103° East 497 572 35,000  Level FlightAware
01:31PM 61.0880 75.4110 103° East 497 572 35,000  Level FlightAware
01:32PM 61.0220 75.8680 106° East 496 571 35,000  Level FlightAware
01:33PM 61.0040 76.0110 104° East 496 571 35,000  Level FlightAware
01:33PM 60.9850 76.1670 104° East 496 571 35,000  Level FlightAware
01:34PM 60.9590 76.3500 106° East 497 572 35,000  Level FlightAware
01:35PM 60.9340 76.5480 104° East 497 572 35,000  Level FlightAware
01:35PM 60.9210 76.6410 106° East 497 572 35,000  Level FlightAware
01:36PM 60.9030 76.7850 104° East 497 572 35,000  Level FlightAware
01:37PM 60.8670 77.0560 105° East 497 572 35,000  Level FlightAware
01:38PM 60.8490 77.1960 105° East 497 572 35,000  Level FlightAware
01:38PM 60.8310 77.3350 105° East 497 572 35,000  Level FlightAware
01:39PM 60.8120 77.4790 105° East 497 572 35,000  Level FlightAware
01:39PM 60.7930 77.6220 105° East 497 572 35,000  Level FlightAware
01:40PM 60.7620 77.8580 105° East 497 572 35,000  Level FlightAware
01:41PM 60.7380 78.0430 105° East 497 572 35,000  Level FlightAware
01:42PM 60.7200 78.1820 105° East 497 572 35,000  Level FlightAware
01:42PM 60.7020 78.3210 105° East 497 572 35,000  Level FlightAware
01:43PM 60.6890 78.4140 106° East 497 572 35,000  Level FlightAware
01:44PM 60.6580 78.6490 105° East 497 572 35,000  Level FlightAware
01:47PM 60.5967 79.3504 100° East  Level Estimated
01:48PM 60.5730 79.6111 100° East  Level Estimated
01:49PM 60.5487 79.8714 101° East  Level Estimated
01:50PM 60.5239 80.1313 101° East  Level Estimated
01:51PM 60.4986 80.3909 101° East  Level Estimated
01:52PM 60.4729 80.6500 101° East  Level Estimated
01:53PM 60.4466 80.9087 102° East  Level Estimated
01:54PM 60.4198 81.1669 102° East  Level Estimated
01:55PM 60.3925 81.4248 102° East  Level Estimated
01:56PM 60.3647 81.6822 102° East  Level Estimated
01:57PM 60.3364 81.9392 102° East  Level Estimated
01:58PM 60.3076 82.1957 103° East  Level Estimated
01:59PM 60.2784 82.4518 103° East  Level Estimated
02:00PM 60.2486 82.7074 103° East  Level Estimated
02:01PM 60.2184 82.9625 103° East  Level Estimated
02:02PM 60.1876 83.2171 104° East  Level Estimated
02:03PM 60.1564 83.4713 104° East  Level Estimated
02:04PM 60.1247 83.7250 104° East  Level Estimated
02:05PM 60.0925 83.9782 104° East  Level Estimated
02:06PM 60.0598 84.2309 104° East  Level Estimated
02:07PM 60.0266 84.4831 105° East  Level Estimated
02:08PM 59.9930 84.7348 105° East  Level Estimated
02:09PM 59.9589 84.9860 105° East  Level Estimated
02:09PM 60.0870 86.0290 105° East 507 583 35,000  Level FlightAware
02:10PM 60.0640 86.3130 99° East 507 583 35,000  Level FlightAware
02:10PM 60.0560 86.4080 100° East 507 583 35,000  Level FlightAware
02:11PM 60.0490 86.5020 98° East 507 583 35,000  Level FlightAware
02:12PM 60.0300 86.7350 99° East 507 583 35,000  Level FlightAware
02:13PM 60.0110 86.9750 99° East 507 583 35,000  Level FlightAware
02:13PM 60.0000 87.1170 99° East 507 583 35,000  Level FlightAware
02:14PM 59.9890 87.2590 99° East 507 583 35,000  Level FlightAware
02:15PM 59.9780 87.4010 99° East 507 583 35,000  Level FlightAware
02:16PM 59.9590 87.6370 99° East 507 583 35,000  Level FlightAware
02:16PM 59.9480 87.7780 99° East 507 583 35,000  Level FlightAware
02:17PM 59.9360 87.9200 100° East 507 583 35,000  Level FlightAware
02:18PM 59.9210 88.1120 99° East 507 583 35,000  Level FlightAware
02:18PM 59.9100 88.2540 99° East 507 583 35,000  Level FlightAware
02:19PM 59.8980 88.3950 100° East 507 583 35,000 60 Level FlightAware
02:22PM 59.7803 89.0728 109° East  Level Estimated
02:23PM 59.7369 89.3166 109° East  Level Estimated
02:24PM 59.6931 89.5598 110° East  Level Estimated
02:25PM 59.6488 89.8023 110° East  Level Estimated
02:26PM 59.6041 90.0442 110° East  Level Estimated
02:27PM 59.5589 90.2854 110° East  Level Estimated
02:28PM 59.5133 90.5260 110° East  Level Estimated
02:29PM 59.4672 90.7659 111° Southeast  Level Estimated
02:30PM 59.4207 91.0052 111° Southeast  Level Estimated
02:31PM 59.3738 91.2438 111° Southeast  Level Estimated
02:32PM 59.3264 91.4818 111° Southeast  Level Estimated
02:33PM 59.2786 91.7191 111° Southeast  Level Estimated
02:34PM 59.2304 91.9557 112° Southeast  Level Estimated
02:35PM 59.1817 92.1916 112° Southeast  Level Estimated
02:36PM 59.1326 92.4269 112° Southeast  Level Estimated
02:37PM 59.0831 92.6615 112° Southeast  Level Estimated
02:38PM 59.0332 92.8954 112° Southeast  Level Estimated
02:39PM 58.9829 93.1287 113° Southeast  Level Estimated
02:40PM 58.9321 93.3612 113° Southeast  Level Estimated
02:41PM 58.8809 93.5931 113° Southeast  Level Estimated
02:42PM 58.8293 93.8243 113° Southeast  Level Estimated
02:43PM 58.7773 94.0548 113° Southeast  Level Estimated
02:44PM 58.7249 94.2846 114° Southeast  Level Estimated
02:45PM 58.6720 94.5137 114° Southeast  Level Estimated
02:46PM 58.6188 94.7421 114° Southeast  Level Estimated
02:47PM 58.5652 94.9698 114° Southeast  Level Estimated
02:48PM 58.5111 95.1968 114° Southeast  Level Estimated
02:48PM 58.4220 96.4470 115° Southeast 510 587 37,000  Level FlightAware
02:49PM 58.4567 95.4231 115° Southeast  Level Estimated
02:49PM 58.3840 96.5820 118° Southeast 507 583 37,000  Level FlightAware
02:49PM 58.3750 96.6150 117° Southeast 507 583 37,000  Level FlightAware
02:51PM 58.2880 96.9250 118° Southeast 509 586 37,000  Level FlightAware
02:51PM 58.2250 97.1400 119° Southeast 509 586 37,000  Level FlightAware
02:53PM 58.1640 97.3580 118° Southeast 509 586 37,000  Level FlightAware
02:53PM 58.1050 97.5550 119° Southeast 505 581 37,000  Level FlightAware
02:54PM 58.0670 97.6830 119° Southeast 505 581 37,000  Level FlightAware
02:54PM 58.0330 97.8010 119° Southeast 505 581 37,000  Level FlightAware
02:55PM 57.9890 97.9470 120° Southeast 509 586 37,000  Level FlightAware
02:56PM 57.9500 98.0790 119° Southeast 509 586 37,000  Level FlightAware
02:56PM 57.9150 98.1980 119° Southeast 509 586 37,000  Level FlightAware
02:57PM 57.8430 98.4340 120° Southeast 503 579 37,000  Level FlightAware
02:58PM 57.7960 98.5930 119° Southeast 503 579 37,000  Level FlightAware
02:59PM 57.7620 98.7100 119° Southeast 503 579 37,000  Level FlightAware
02:59PM 57.6950 98.9150 121° Southeast 508 585 37,000  Level FlightAware
03:00PM 57.6460 99.0730 120° Southeast 508 585 37,000  Level FlightAware
03:01PM 57.6090 99.1930 120° Southeast 508 585 37,000  Level FlightAware
03:01PM 57.5730 99.3090 120° Southeast 508 585 37,000  Level FlightAware
03:02PM 57.5370 99.4250 120° Southeast 508 585 37,000  Level FlightAware
03:02PM 57.5110 99.5090 120° Southeast 508 585 37,000  Level FlightAware
03:03PM 57.4750 99.6240 120° Southeast 508 585 37,000  Level FlightAware
03:04PM 57.4160 99.8140 120° Southeast 508 585 37,000  Level FlightAware
03:04PM 57.3770 99.9390 120° Southeast 508 585 37,000  Level FlightAware
03:05PM 57.3290 100.0930 120° Southeast 508 585 37,000  Level FlightAware
03:06PM 57.2930 100.2080 120° Southeast 508 585 37,000  Level FlightAware
03:06PM 57.2570 100.3240 120° Southeast 508 585 37,000  Level FlightAware
03:07PM 57.2330 100.4000 120° Southeast 508 585 37,000  Level FlightAware
03:08PM 57.1870 100.5470 120° Southeast 508 585 37,000  Level FlightAware
03:09PM 57.1270 100.7390 120° Southeast 508 585 37,000  Level FlightAware
03:11PM 57.0036 101.1380 119° Southeast  Level Estimated
03:12PM 56.9387 101.3452 120° Southeast  Level Estimated
03:13PM 56.8734 101.5516 120° Southeast  Level Estimated
03:14PM 56.8078 101.7573 120° Southeast  Level Estimated
03:15PM 56.7419 101.9623 120° Southeast  Level Estimated
03:16PM 56.6757 102.1665 120° Southeast  Level Estimated
03:17PM 56.6091 102.3701 121° Southeast  Level Estimated
03:18PM 56.5422 102.5729 121° Southeast  Level Estimated
03:19PM 56.4749 102.7750 121° Southeast  Level Estimated
03:20PM 56.4074 102.9764 121° Southeast  Level Estimated
03:21PM 56.3395 103.1771 121° Southeast  Level Estimated
03:22PM 56.2713 103.3770 122° Southeast  Level Estimated
03:23PM 56.2027 103.5763 122° Southeast  Level Estimated
03:24PM 56.1339 103.7748 122° Southeast  Level Estimated
03:25PM 56.0647 103.9726 122° Southeast  Level Estimated
03:26PM 55.9952 104.1697 122° Southeast  Level Estimated
03:27PM 55.9254 104.3661 122° Southeast  Level Estimated
03:28PM 55.8553 104.5618 122° Southeast  Level Estimated
03:29PM 55.7848 104.7568 123° Southeast  Level Estimated
03:30PM 55.7141 104.9511 123° Southeast  Level Estimated
03:31PM 55.6431 105.1447 123° Southeast  Level Estimated
03:32PM 55.5717 105.3375 123° Southeast  Level Estimated
03:33PM 55.5001 105.5297 123° Southeast  Level Estimated
03:34PM 55.4281 105.7212 123° Southeast  Level Estimated
03:35PM 55.3559 105.9119 124° Southeast  Level Estimated
03:36PM 55.2834 106.1020 124° Southeast  Level Estimated
03:37PM 55.2105 106.2914 124° Southeast  Level Estimated
03:38PM 55.1374 106.4801 124° Southeast  Level Estimated
03:39PM 55.0640 106.6681 124° Southeast  Level Estimated
03:40PM 54.9903 106.8554 124° Southeast  Level Estimated
03:41PM 54.9163 107.0420 125° Southeast  Level Estimated
03:42PM 54.8420 107.2280 125° Southeast  Level Estimated
03:43PM 54.7675 107.4132 125° Southeast  Level Estimated
03:44PM 54.6926 107.5978 125° Southeast  Level Estimated
03:45PM 54.6175 107.7817 125° Southeast  Level Estimated
03:46PM 54.5421 107.9649 125° Southeast  Level Estimated
03:47PM 54.4664 108.1474 125° Southeast  Level Estimated
03:48PM 54.3905 108.3293 126° Southeast  Level Estimated
03:49PM 54.3143 108.5105 126° Southeast  Level Estimated
03:50PM 54.2378 108.6910 126° Southeast  Level Estimated
03:51PM 54.1610 108.8708 126° Southeast  Level Estimated
03:52PM 54.0840 109.0500 126° Southeast  Level Estimated
03:53PM 54.0067 109.2285 126° Southeast  Level Estimated
03:54PM 53.9292 109.4063 126° Southeast  Level Estimated
03:55PM 53.8513 109.5835 127° Southeast  Level Estimated
03:56PM 53.7733 109.7601 127° Southeast  Level Estimated
03:57PM 53.6950 109.9359 127° Southeast  Level Estimated
03:58PM 53.6164 110.1112 127° Southeast  Level Estimated
03:59PM 53.5375 110.2857 127° Southeast  Level Estimated
04:00PM 53.4584 110.4596 127° Southeast  Level Estimated
04:01PM 53.3791 110.6329 127° Southeast  Level Estimated
04:02PM 53.2995 110.8055 128° Southeast  Level Estimated
04:03PM 53.2196 110.9775 128° Southeast  Level Estimated
04:04PM 53.1395 111.1489 128° Southeast  Level Estimated
04:05PM 53.0592 111.3196 128° Southeast  Level Estimated
04:06PM 52.9786 111.4896 128° Southeast  Level Estimated
04:07PM 52.8978 111.6590 128° Southeast  Level Estimated
04:08PM 52.8167 111.8279 128° Southeast  Level Estimated
04:09PM 52.7354 111.9960 129° Southeast  Level Estimated
04:10PM 52.6539 112.1636 129° Southeast  Level Estimated
04:11PM 52.5721 112.3305 129° Southeast  Level Estimated
04:12PM 52.4901 112.4968 129° Southeast  Level Estimated
04:13PM 52.4079 112.6624 129° Southeast  Level Estimated
04:14PM 52.3254 112.8275 129° Southeast  Level Estimated
04:15PM 52.2427 112.9919 129° Southeast  Level Estimated
04:16PM 52.1598 113.1558 129° Southeast  Level Estimated
04:17PM 52.0766 113.3190 130° Southeast  Level Estimated
04:18PM 51.9932 113.4816 130° Southeast  Level Estimated
04:19PM 51.9096 113.6436 130° Southeast  Level Estimated
04:20PM 51.8258 113.8050 130° Southeast  Level Estimated
04:21PM 51.7418 113.9658 130° Southeast  Level Estimated
04:22PM 51.6575 114.1260 130° Southeast  Level Estimated
04:23PM 51.5730 114.2856 130° Southeast  Level Estimated
04:24PM 51.4883 114.4446 131° Southeast  Level Estimated
04:25PM 51.4034 114.6031 131° Southeast  Level Estimated
04:26PM 51.3183 114.7609 131° Southeast  Level Estimated
04:27PM 51.2330 114.9182 131° Southeast  Level Estimated
04:28PM 51.1474 115.0748 131° Southeast  Level Estimated
04:29PM 51.0617 115.2309 131° Southeast  Level Estimated
04:30PM 50.9757 115.3864 131° Southeast  Level Estimated
04:31PM 50.8895 115.5414 131° Southeast  Level Estimated
04:32PM 50.8032 115.6957 131° Southeast  Level Estimated
04:33PM 50.7166 115.8495 132° Southeast  Level Estimated
04:34PM 50.6298 116.0027 132° Southeast  Level Estimated
04:35PM 50.5429 116.1554 132° Southeast  Level Estimated
04:36PM 50.4557 116.3075 132° Southeast  Level Estimated
04:37PM 50.3683 116.4590 132° Southeast  Level Estimated
04:38PM 50.2808 116.6100 132° Southeast  Level Estimated
04:39PM 50.1930 116.7604 132° Southeast  Level Estimated
04:40PM 50.1050 116.9103 132° Southeast  Level Estimated
04:41PM 50.0169 117.0596 133° Southeast  Level Estimated
04:42PM 49.9285 117.2084 133° Southeast  Level Estimated
04:43PM 49.8400 117.3566 133° Southeast  Level Estimated
04:44PM 49.7513 117.5043 133° Southeast  Level Estimated
04:45PM 49.6624 117.6515 133° Southeast  Level Estimated
04:46PM 49.5733 117.7981 133° Southeast  Level Estimated
04:47PM 49.4840 117.9442 133° Southeast  Level Estimated
04:48PM 49.3946 118.0897 133° Southeast  Level Estimated
04:49PM 49.3049 118.2347 133° Southeast  Level Estimated
04:50PM 49.2151 118.3792 134° Southeast  Level Estimated
04:51PM 49.1251 118.5231 134° Southeast  Level Estimated
04:52PM 49.0349 118.6666 134° Southeast  Level Estimated
04:53PM 48.9446 118.8095 134° Southeast  Level Estimated
04:54PM 48.8540 118.9519 134° Southeast  Level Estimated
04:55PM 48.7633 119.0938 134° Southeast  Level Estimated
04:56PM 48.6725 119.2352 134° Southeast  Level Estimated
04:57PM 48.5814 119.3761 134° Southeast  Level Estimated
04:58PM 48.4902 119.5164 134° Southeast  Level Estimated
04:59PM 48.3988 119.6563 135° Southeast  Level Estimated
05:00PM 48.3072 119.7956 135° Southeast  Level Estimated
05:01PM 48.2155 119.9345 135° Southeast  Level Estimated
05:02PM 48.1236 120.0728 135° Southeast  Level Estimated
05:03PM 48.0316 120.2107 135° Southeast  Level Estimated
05:04PM 47.9393 120.3481 135° Southeast  Level Estimated
05:05PM 47.8469 120.4849 135° Southeast  Level Estimated
05:06PM 47.7544 120.6213 135° Southeast  Level Estimated
05:07PM 47.6617 120.7572 135° Southeast  Level Estimated
05:08PM 47.5688 120.8926 135° Southeast  Level Estimated
05:09PM 47.4758 121.0276 136° Southeast  Level Estimated
05:10PM 47.3826 121.1621 136° Southeast  Level Estimated
05:11PM 47.2892 121.2961 136° Southeast  Level Estimated
05:12PM 47.1957 121.4296 136° Southeast  Level Estimated
05:13PM 47.1021 121.5626 136° Southeast  Level Estimated
05:14PM 47.0083 121.6952 136° Southeast  Level Estimated
05:15PM 46.9143 121.8273 136° Southeast  Level Estimated
05:16PM 46.8202 121.9590 136° Southeast  Level Estimated
05:17PM 46.7259 122.0902 136° Southeast  Level Estimated
05:18PM 46.6315 122.2209 136° Southeast  Level Estimated
05:19PM 46.5370 122.3512 137° Southeast  Level Estimated
05:20PM 46.4422 122.4810 137° Southeast  Level Estimated
05:21PM 46.3474 122.6104 137° Southeast  Level Estimated
05:22PM 46.2524 122.7393 137° Southeast  Level Estimated
05:23PM 46.1573 122.8678 137° Southeast  Level Estimated
05:24PM 46.0620 122.9958 137° Southeast  Level Estimated
05:25PM 45.9665 123.1234 137° Southeast  Level Estimated
05:26PM 45.8710 123.2506 137° Southeast  Level Estimated
05:27PM 45.7753 123.3773 137° Southeast  Level Estimated
05:28PM 45.6794 123.5036 137° Southeast  Level Estimated
05:29PM 45.5834 123.6294 137° Southeast  Level Estimated
05:30PM 45.4873 123.7549 138° Southeast  Level Estimated
05:31PM 45.3910 123.8799 138° Southeast  Level Estimated
05:32PM 45.2946 124.0044 138° Southeast  Level Estimated
05:33PM 45.1981 124.1286 138° Southeast  Level Estimated
05:34PM 45.1014 124.2523 138° Southeast  Level Estimated
05:35PM 45.0046 124.3756 138° Southeast  Level Estimated
05:36PM 44.9077 124.4985 138° Southeast  Level Estimated
05:37PM 44.8106 124.6210 138° Southeast  Level Estimated
05:38PM 44.7134 124.7430 138° Southeast  Level Estimated
05:39PM 44.6161 124.8647 138° Southeast  Level Estimated
05:40PM 44.5186 124.9860 138° Southeast  Level Estimated
05:41PM 44.4210 125.1068 138° Southeast  Level Estimated
05:42PM 44.3233 125.2272 139° Southeast  Level Estimated
05:43PM 44.2255 125.3473 139° Southeast  Level Estimated
05:44PM 44.1275 125.4669 139° Southeast  Level Estimated
05:44PM 44.6340 127.7860 139° Southeast 479 551 39,100  Level FlightAware
05:44PM 44.5680 127.8860 133° Southeast 477 549 39,100  Level FlightAware
05:45PM 44.0294 125.5862 139° Southeast  Level Estimated
05:45PM 44.5070 127.9820 132° Southeast 477 549 39,100  Level FlightAware
05:46PM 44.4620 128.0530 132° Southeast 477 549 39,100  Level FlightAware
05:47PM 44.4010 128.1460 133° Southeast 477 549 39,100  Level FlightAware
05:47PM 44.3410 128.2400 132° Southeast 477 549 39,100  Level FlightAware
05:48PM 44.2960 128.3100 132° Southeast 477 549 39,100  Level FlightAware
05:49PM 44.2190 128.4290 132° Southeast 477 549 39,100  Level FlightAware
05:50PM 44.1580 128.5240 132° Southeast 477 549 39,100  Level FlightAware
05:51PM 44.0980 128.6170 132° Southeast 477 549 39,100  Level FlightAware
05:51PM 44.0520 128.6870 132° Southeast 477 549 39,100  Level FlightAware
05:52PM 44.0210 128.7360 131° Southeast 477 549 39,100  Level FlightAware
05:53PM 43.7000 128.8510 165° South 476 548 39,100  Level FlightAware
05:54PM 43.6040 128.9190 153° Southeast 476 548 39,100  Level FlightAware
05:54PM 43.5180 128.9790 153° Southeast 477 549 39,100  Level FlightAware
05:55PM 43.4450 129.0300 153° Southeast 477 549 39,100  Level FlightAware
05:56PM 43.3250 129.1170 152° Southeast 477 549 39,100  Level FlightAware
05:56PM 43.3170 129.1230 151° Southeast 477 549 39,100  Level FlightAware
05:57PM 43.1890 129.2210 151° Southeast 477 549 39,100  Level FlightAware
05:58PM 43.1020 129.2870 151° Southeast 477 549 39,100  Level FlightAware
05:59PM 43.0020 129.3620 151° Southeast 478 550 39,100  Level FlightAware
05:59PM 42.9330 129.4140 151° Southeast 479 551 39,100  Level FlightAware
06:00PM 42.8200 129.4970 152° Southeast 478 550 39,100  Level FlightAware
06:01PM 42.7340 129.5550 154° Southeast 477 549 39,100  Level FlightAware
06:02PM 42.6510 129.6120 153° Southeast 476 548 39,100  Level FlightAware
06:02PM 42.6070 129.6420 153° Southeast 476 548 39,100 -120 Level FlightAware
06:03PM 42.4880 129.7240 153° Southeast 473 544 39,000 -60 Descending FlightAware
06:04PM 42.3890 129.7960 152° Southeast 471 542 39,000  Level FlightAware
06:07PM 42.1123 130.0106 150° Southeast  Level Estimated
06:07PM 42.0820 130.0290 150° Southeast 476 548 39,000  Level FlightAware
06:08PM 41.9060 130.1620 151° Southeast 473 544 39,000  Level FlightAware
06:09PM 41.8290 130.2190 151° Southeast 473 544 39,000  Level FlightAware
06:10PM 41.7330 130.2900 151° Southeast 474 545 39,000  Level FlightAware
06:10PM 41.6480 130.3540 151° Southeast 474 545 39,000  Level FlightAware
06:12PM 41.4320 130.5130 151° Southeast 471 542 39,000  Level FlightAware
06:15PM 41.1977 130.6893 150° Southeast  Level Estimated
06:15PM 41.1790 130.7000 150° Southeast 471 542 39,000  Level FlightAware
06:16PM 41.1210 130.7430 151° Southeast 471 542 39,000  Level FlightAware
06:18PM 40.8880 130.9140 151° Southeast 471 542 39,000  Level FlightAware
06:19PM 40.7955 130.9851 151° Southeast  Level Estimated
06:19PM 40.8290 130.9570 151° Southeast 471 542 39,000  Level FlightAware
06:19PM 40.7520 131.0140 151° Southeast 471 542 39,000  Level FlightAware
06:21PM 40.5980 131.1260 151° Southeast 471 542 39,000  Level FlightAware
06:23PM 40.1900 131.4050 151° Southeast 474 545 39,000  Level FlightAware
06:24PM 40.3154 131.3327 151° Southeast  Level Estimated
06:24PM 40.1110 131.4600 152° Southeast 474 545 39,000  Level FlightAware
06:25PM 40.0130 131.5290 152° Southeast 474 545 39,000  Level FlightAware
06:26PM 39.9720 131.5570 152° Southeast 474 545 39,000  Level FlightAware
06:28PM 39.6950 131.7490 151° Southeast 474 545 39,000  Level FlightAware
06:29PM 39.6397 131.7964 151° Southeast  Level Estimated
06:29PM 39.6360 131.7900 152° Southeast 474 545 39,000  Level FlightAware
06:30PM 39.4960 131.8860 152° Southeast 474 545 39,000  Level FlightAware
06:31PM 39.4000 131.9520 152° Southeast 474 545 39,000  Level FlightAware
06:32PM 39.3400 131.9940 152° Southeast 474 545 39,000  Level FlightAware
06:35PM 39.0528 132.1978 151° Southeast  Level Estimated
06:36PM 38.9380 132.2788 151° Southeast  Level Estimated
06:37PM 38.8231 132.3595 151° Southeast  Level Estimated
06:38PM 38.7081 132.4400 151° Southeast  Level Estimated
06:39PM 38.5931 132.5202 151° Southeast  Level Estimated
06:40PM 38.4780 132.6001 151° Southeast  Level Estimated
06:41PM 38.3629 132.6798 152° Southeast  Level Estimated
06:42PM 38.2477 132.7592 152° Southeast  Level Estimated
06:43PM 38.1325 132.8384 152° Southeast  Level Estimated
06:44PM 38.0172 132.9173 152° Southeast  Level Estimated
06:45PM 37.9019 132.9960 152° Southeast  Level Estimated
06:46PM 37.7865 133.0744 152° Southeast  Level Estimated
06:47PM 37.6710 133.1526 152° Southeast  Level Estimated
06:48PM 37.5555 133.2306 152° Southeast  Level Estimated
06:49PM 37.4400 133.3083 152° Southeast  Level Estimated
06:50PM 37.3244 133.3858 152° Southeast  Level Estimated
06:51PM 37.2088 133.4630 152° Southeast  Level Estimated
06:52PM 37.0931 133.5400 152° Southeast  Level Estimated
06:53PM 36.9773 133.6167 152° Southeast  Level Estimated
06:53PM 36.6420 133.0140 152° Southeast 469 540 39,000  Level FlightAware
06:54PM 36.5640 133.0630 153° Southeast 466 536 38,400 -900 Descending FlightAware
06:54PM 36.4900 133.1100 153° Southeast 450 518 37,800 -960 Descending FlightAware
06:55PM 36.3980 133.1680 153° Southeast 456 525 37,000 -1,020 Descending FlightAware
06:56PM 36.3160 133.2180 154° Southeast 467 537 36,300 -1,020 Descending FlightAware
06:57PM 36.2290 133.2730 153° Southeast 454 522 35,600 -960 Descending FlightAware
06:57PM 36.1560 133.3190 153° Southeast 433 498 35,000 -1,020 Descending FlightAware
06:58PM 36.0880 133.3610 153° Southeast 415 478 34,300 -1,140 Descending FlightAware
06:59PM 36.0190 133.4030 154° Southeast 399 459 33,500 -1,380 Descending FlightAware
06:59PM 35.9440 133.4490 154° Southeast 395 455 32,400 -1,500 Descending FlightAware
07:02PM 35.7338 133.7037 135° Southeast  Level Estimated
07:03PM 35.6402 133.8165 136° Southeast  Level Estimated
07:04PM 35.5465 133.9290 136° Southeast  Level Estimated
07:05PM 35.4527 134.0413 136° Southeast  Level Estimated
07:06PM 35.3588 134.1533 136° Southeast  Level Estimated
07:07PM 35.2648 134.2650 136° Southeast  Level Estimated
07:08PM 35.1707 134.3765 136° Southeast  Level Estimated
07:09PM 35.0765 134.4877 136° Southeast  Level Estimated
07:10PM 34.9822 134.5987 136° Southeast  Level Estimated
07:11PM 34.8878 134.7094 136° Southeast  Level Estimated
07:12PM 34.7932 134.8199 136° Southeast  Level Estimated
07:13PM 34.6986 134.9301 136° Southeast  Level Estimated
07:14PM 34.6039 135.0400 136° Southeast  Level Estimated
07:15PM 34.5091 135.1497 136° Southeast  Level Estimated
07:16PM 34.4273 135.2441 136° Southeast  Level Estimated
07:17PM 34.4273 135.2441 158° South  Level Estimated
07:18PM 34.4273 135.2441 158° South  Level Estimated
07:19PM 34.4273 135.2441 158° South  Level Estimated
07:20PM 34.4273 135.2441 158° South  Level Estimated
07:21PM 34.4273 135.2441 158° South  Level Estimated
07:22PM 34.4273 135.2441 158° South  Level Estimated
07:23PM 34.4273 135.2441 158° South  Level Estimated
07:24PM 34.4273 135.2441 158° South  Level Estimated
07:25PM 34.4273 135.2441 158° South  Level Estimated
07:26PM 34.4273 135.2441 158° South  Level Estimated
07:27PM 34.4273 135.2441 158° South  Level Estimated
07:28PM 34.4273 135.2441 158° South  Level Estimated
07:29PM 34.4273 135.2441 158° South  Level Estimated
07:30PM 34.4273 135.2441 158° South  Level Estimated
07:31PM 34.4273 135.2441 158° South  Level Estimated
07:32PM 34.4273 135.2441 158° South  Level Estimated
07:33PM 34.4273 135.2441 158° South  Level Estimated
07:34PM 34.4273 135.2441 158° South  Level Estimated
07:35PM 34.4273 135.2441 158° South  Level Estimated
07:36PM 34.4273 135.2441 158° South  Level Estimated
07:37PM 34.4273 135.2441 158° South  Level Estimated
07:38PM 34.4273 135.2441 158° South  Level Estimated